Time;durP1;ratioP1;P1;durP2;ratioP2;P2;SDS_P1;SDS_P2;PMS_P1;PMS_P2;Temp;Humidity;BMP_temperature;BMP_pressure;BME280_temperature;BME280_humidity;BME280_pressure;Samples;Min_cycle;Max_cycle;Signal;HPM_P1;HPM_P2
2022/06/27 00:00:54;;;;;;;8.77;3.73;;;20.90;90.50;;;;;;5075283;28;20451;-69
2022/06/27 00:03:20;;;;;;;5.87;3.70;;;20.90;90.70;;;;;;5074930;28;20492;-69
2022/06/27 00:05:47;;;;;;;8.60;3.60;;;20.90;90.80;;;;;;5075135;28;20449;-69
2022/06/27 00:08:15;;;;;;;11.97;3.60;;;20.90;90.80;;;;;;5075379;28;20440;-69
2022/06/27 00:10:42;;;;;;;7.07;3.40;;;20.80;91.10;;;;;;5075152;28;20437;-69
2022/06/27 00:13:09;;;;;;;4.50;3.67;;;20.80;90.80;;;;;;5075243;28;20440;-69
2022/06/27 00:15:36;;;;;;;8.70;3.73;;;20.80;90.60;;;;;;5075684;28;20456;-69
2022/06/27 00:18:02;;;;;;;5.30;3.37;;;20.80;90.50;;;;;;5075604;28;20445;-69
2022/06/27 00:20:29;;;;;;;4.10;3.00;;;20.80;90.60;;;;;;5076634;28;20452;-69
2022/06/27 00:22:56;;;;;;;7.13;3.87;;;20.70;90.50;;;;;;5076646;28;20488;-69
2022/06/27 00:25:24;;;;;;;6.57;3.10;;;20.70;90.60;;;;;;5075281;28;20469;-69
2022/06/27 00:27:51;;;;;;;5.83;3.50;;;20.70;90.80;;;;;;5075554;28;20440;-69
2022/06/27 00:30:18;;;;;;;5.67;3.70;;;20.70;90.80;;;;;;5075058;28;20447;-70
2022/06/27 00:32:45;;;;;;;5.73;3.97;;;20.70;90.90;;;;;;5074377;28;20460;-69
2022/06/27 00:35:12;;;;;;;3.57;3.27;;;20.70;90.90;;;;;;5074585;28;20558;-69
2022/06/27 00:37:39;;;;;;;7.00;3.17;;;20.60;90.90;;;;;;5074240;28;20453;-69
2022/06/27 00:40:08;;;;;;;6.43;3.43;;;20.60;91.20;;;;;;5074349;28;20433;-69
2022/06/27 00:42:36;;;;;;;4.93;4.40;;;20.60;91.50;;;;;;5074273;28;20440;-69
2022/06/27 00:45:04;;;;;;;6.80;4.30;;;20.50;91.80;;;;;;5074059;28;20471;-69
2022/06/27 00:47:30;;;;;;;13.10;4.83;;;20.50;91.80;;;;;;5073729;28;20844;-69
2022/06/27 00:49:57;;;;;;;8.20;4.70;;;20.40;91.90;;;;;;5073680;28;20965;-69
2022/06/27 00:52:24;;;;;;;9.57;5.70;;;20.40;92.30;;;;;;5074195;28;20440;-69
2022/06/27 00:54:51;;;;;;;11.23;4.80;;;20.30;92.60;;;;;;5073605;28;20483;-69
2022/06/27 00:57:19;;;;;;;10.20;4.60;;;20.30;92.90;;;;;;5073908;28;20448;-69
2022/06/27 00:59:47;;;;;;;8.40;5.05;;;20.20;92.90;;;;;;5073374;28;20814;-69
2022/06/27 01:02:14;;;;;;;10.47;5.20;;;20.30;93.10;;;;;;5073801;28;20198;-69
2022/06/27 01:04:41;;;;;;;8.53;4.90;;;20.30;93.10;;;;;;5073430;28;20846;-69
2022/06/27 01:07:10;;;;;;;7.97;5.70;;;20.30;93.30;;;;;;5073729;28;20463;-69
2022/06/27 01:09:36;;;;;;;10.50;4.83;;;20.30;93.40;;;;;;5073748;28;20459;-69
2022/06/27 01:12:04;;;;;;;7.07;4.37;;;20.40;93.20;;;;;;5073766;28;20452;-69
2022/06/27 01:14:31;;;;;;;6.17;5.00;;;20.40;93.00;;;;;;5073786;28;20457;-69
2022/06/27 01:17:00;;;;;;;9.77;5.80;;;20.40;92.90;;;;;;5073344;28;20949;-69
2022/06/27 01:19:27;;;;;;;7.10;5.00;;;20.40;92.70;;;;;;5073590;28;20452;-69
2022/06/27 01:21:55;;;;;;;6.90;5.30;;;20.40;92.80;;;;;;5073574;28;20441;-69
2022/06/27 01:24:25;;;;;;;11.90;5.83;;;20.40;93.00;;;;;;5073744;28;20508;-69
2022/06/27 01:26:52;;;;;;;10.07;5.13;;;20.40;92.90;;;;;;5073698;28;20459;-69
2022/06/27 01:29:20;;;;;;;8.40;5.53;;;20.40;93.10;;;;;;5073676;28;20452;-69
2022/06/27 01:31:47;;;;;;;10.87;5.63;;;20.40;92.80;;;;;;5073091;28;20445;-69
2022/06/27 01:34:15;;;;;;;7.63;5.83;;;20.40;92.80;;;;;;5073435;28;20469;-69
2022/06/27 01:36:45;;;;;;;7.83;5.83;;;20.40;92.80;;;;;;5073411;28;20444;-69
2022/06/27 01:39:14;;;;;;;6.87;5.50;;;20.40;93.00;;;;;;5073476;28;20527;-69
2022/06/27 01:41:44;;;;;;;6.27;5.50;;;20.40;93.00;;;;;;5073407;28;20456;-69
2022/06/27 01:44:12;;;;;;;5.40;4.87;;;20.40;93.20;;;;;;5073464;28;20523;-69
2022/06/27 01:46:41;;;;;;;6.40;5.37;;;20.30;93.10;;;;;;5073363;28;20451;-69
2022/06/27 01:49:08;;;;;;;7.47;6.33;;;20.30;93.20;;;;;;5073366;28;20445;-69
2022/06/27 01:51:36;;;;;;;6.30;5.70;;;20.30;93.30;;;;;;5073095;28;20444;-69
2022/06/27 01:54:03;;;;;;;6.63;5.37;;;20.40;93.50;;;;;;5072882;28;20488;-69
2022/06/27 01:56:30;;;;;;;6.97;5.20;;;20.40;93.40;;;;;;5073245;28;20451;-69
2022/06/27 01:58:58;;;;;;;8.83;5.47;;;20.40;93.20;;;;;;5073283;28;20453;-69
2022/06/27 02:01:26;;;;;;;6.90;5.90;;;20.50;93.30;;;;;;5073287;28;20465;-69
2022/06/27 02:03:53;;;;;;;8.70;6.67;;;20.50;93.30;;;;;;5073098;28;20569;-69
2022/06/27 02:06:20;;;;;;;8.60;7.00;;;20.50;93.40;;;;;;5073227;28;20449;-69
2022/06/27 02:08:47;;;;;;;9.03;6.77;;;20.50;93.50;;;;;;5073115;28;20451;-69
2022/06/27 02:11:15;;;;;;;8.10;6.57;;;20.50;93.30;;;;;;5073131;28;20449;-69
2022/06/27 02:13:42;;;;;;;8.20;7.10;;;20.50;93.30;;;;;;5073035;28;20465;-69
2022/06/27 02:16:12;;;;;;;7.90;6.90;;;20.50;93.30;;;;;;5073302;28;20448;-69
2022/06/27 02:18:41;;;;;;;14.63;7.40;;;20.50;93.50;;;;;;5074098;28;20452;-69
2022/06/27 02:21:10;;;;;;;7.07;6.50;;;20.50;93.50;;;;;;5073075;28;20441;-69
2022/06/27 02:23:37;;;;;;;9.70;7.03;;;20.40;93.60;;;;;;5072989;28;20484;-69
2022/06/27 02:26:07;;;;;;;7.30;6.63;;;20.40;93.60;;;;;;5072664;28;20510;-69
2022/06/27 02:28:35;;;;;;;7.90;7.20;;;20.40;93.90;;;;;;5072958;28;20450;-69
2022/06/27 02:31:03;;;;;;;8.30;7.10;;;20.30;93.90;;;;;;5073012;28;20449;-69
2022/06/27 02:33:36;;;;;;;8.73;6.83;;;20.30;94.00;;;;;;5073065;28;20456;-69
2022/06/27 02:36:04;;;;;;;9.73;7.00;;;20.30;94.10;;;;;;5072876;28;20432;-69
2022/06/27 02:38:31;;;;;;;10.70;8.53;;;20.30;94.20;;;;;;5072878;28;20449;-69
2022/06/27 02:40:59;;;;;;;9.27;8.10;;;20.30;94.40;;;;;;5073053;28;20441;-69
2022/06/27 02:43:29;;;;;;;11.33;9.40;;;20.20;94.40;;;;;;5076340;28;20486;-69
2022/06/27 02:45:57;;;;;;;10.83;9.73;;;20.30;94.50;;;;;;5076470;28;20999;-69
2022/06/27 02:48:25;;;;;;;10.40;9.30;;;20.20;94.60;;;;;;5077267;28;20441;-69
2022/06/27 02:50:56;;;;;;;9.83;8.83;;;20.20;94.60;;;;;;5076381;28;20489;-69
2022/06/27 02:53:27;;;;;;;10.70;9.80;;;20.20;94.60;;;;;;5076252;28;20463;-69
2022/06/27 02:55:56;;;;;;;9.83;8.60;;;20.20;94.70;;;;;;5076655;28;20437;-69
2022/06/27 02:58:33;;;;;;;17.23;10.20;;;20.20;94.80;;;;;;5076980;28;20428;-69
2022/06/27 03:01:03;;;;;;;10.43;9.40;;;20.30;94.90;;;;;;5078107;28;20437;-69
2022/06/27 03:03:33;;;;;;;9.00;8.30;;;20.30;95.20;;;;;;5076124;28;20485;-69
2022/06/27 03:06:04;;;;;;;11.20;10.10;;;20.30;94.80;;;;;;5076044;28;20487;-69
2022/06/27 03:08:39;;;;;;;12.17;10.47;;;20.40;94.70;;;;;;5075897;28;20432;-69
2022/06/27 03:11:06;;;;;;;9.40;8.50;;;20.40;94.70;;;;;;5075782;28;20498;-69
2022/06/27 03:13:33;;;;;;;12.70;10.00;;;20.40;94.70;;;;;;5075470;28;21003;-69
2022/06/27 03:16:01;;;;;;;15.10;11.07;;;20.40;94.70;;;;;;5075878;28;20806;-69
2022/06/27 03:18:28;;;;;;;12.50;10.27;;;20.50;94.70;;;;;;5075862;28;20453;-69
2022/06/27 03:20:55;;;;;;;11.47;10.37;;;20.40;94.60;;;;;;5075763;28;20448;-69
2022/06/27 03:23:23;;;;;;;9.50;8.57;;;20.50;94.80;;;;;;5075843;28;20474;-69
2022/06/27 03:25:50;;;;;;;11.77;10.60;;;20.40;94.80;;;;;;5075621;28;20451;-69
2022/06/27 03:28:17;;;;;;;10.47;9.50;;;20.50;94.90;;;;;;5075529;28;20460;-69
2022/06/27 03:30:44;;;;;;;10.67;9.77;;;20.40;94.90;;;;;;5075488;28;20441;-69
2022/06/27 03:33:12;;;;;;;11.67;10.20;;;20.40;94.90;;;;;;5075315;28;20452;-69
2022/06/27 03:35:38;;;;;;;12.13;11.03;;;20.40;94.80;;;;;;5075383;28;20444;-69
2022/06/27 03:38:05;;;;;;;11.83;10.63;;;20.40;94.90;;;;;;5075365;28;20471;-69
2022/06/27 03:40:34;;;;;;;13.53;11.10;;;20.40;95.10;;;;;;5075386;28;20456;-69
2022/06/27 03:43:01;;;;;;;13.80;11.03;;;20.40;95.30;;;;;;5075163;28;20527;-69
2022/06/27 03:45:27;;;;;;;11.60;10.40;;;20.30;95.30;;;;;;5075173;28;20487;-69
2022/06/27 03:47:56;;;;;;;11.20;10.17;;;20.40;95.40;;;;;;5075151;28;20449;-69
2022/06/27 03:50:23;;;;;;;11.43;10.23;;;20.40;95.50;;;;;;5074921;28;20942;-69
2022/06/27 03:52:50;;;;;;;18.37;10.63;;;20.40;95.60;;;;;;5074414;28;20444;-69
2022/06/27 03:55:18;;;;;;;11.73;10.00;;;20.40;95.70;;;;;;5074303;28;21039;-69
2022/06/27 03:57:50;;;;;;;12.20;11.10;;;20.40;95.60;;;;;;5075336;28;20451;-69
2022/06/27 04:00:19;;;;;;;13.03;10.83;;;20.50;95.70;;;;;;5075021;28;20425;-69
2022/06/27 04:02:46;;;;;;;11.93;10.50;;;20.40;95.60;;;;;;5075002;28;20452;-69
2022/06/27 04:05:13;;;;;;;11.57;10.57;;;20.40;95.60;;;;;;5075851;28;20819;-69
2022/06/27 04:07:40;;;;;;;12.73;10.50;;;20.50;95.70;;;;;;5074953;28;20453;-69
2022/06/27 04:10:08;;;;;;;11.10;9.70;;;20.40;95.60;;;;;;5074687;28;20440;-69
2022/06/27 04:12:36;;;;;;;11.03;10.00;;;20.50;95.70;;;;;;5074654;28;20471;-69
2022/06/27 04:15:05;;;;;;;11.33;10.23;;;20.50;95.70;;;;;;5074694;28;20480;-69
2022/06/27 04:17:33;;;;;;;11.07;9.90;;;20.50;95.70;;;;;;5074653;28;20449;-69
2022/06/27 04:20:00;;;;;;;11.97;10.30;;;20.50;95.60;;;;;;5074313;28;20459;-69
2022/06/27 04:22:28;;;;;;;15.20;11.33;;;20.50;95.60;;;;;;5074185;28;20958;-68
2022/06/27 04:24:55;;;;;;;10.37;9.43;;;20.50;95.70;;;;;;5074316;28;20483;-68
2022/06/27 04:27:22;;;;;;;10.47;9.37;;;20.50;95.70;;;;;;5074317;28;20460;-68
2022/06/27 04:29:49;;;;;;;11.30;10.23;;;20.50;95.70;;;;;;5074844;28;20448;-68
2022/06/27 04:32:18;;;;;;;11.00;9.90;;;20.50;95.70;;;;;;5073916;28;20445;-69
2022/06/27 04:34:45;;;;;;;11.30;10.40;;;20.50;95.60;;;;;;5073910;28;20870;-69
2022/06/27 04:37:12;;;;;;;11.90;10.70;;;20.60;95.80;;;;;;5073915;28;20950;-69
2022/06/27 04:39:39;;;;;;;11.20;10.30;;;20.60;95.70;;;;;;5074157;28;20820;-69
2022/06/27 04:42:07;;;;;;;11.80;10.50;;;20.60;95.60;;;;;;5073701;28;20449;-69
2022/06/27 04:44:34;;;;;;;12.53;10.50;;;20.60;95.50;;;;;;5073953;28;20495;-69
2022/06/27 04:47:02;;;;;;;12.63;10.63;;;20.60;95.40;;;;;;5074050;28;20468;-68
2022/06/27 04:49:30;;;;;;;11.30;10.27;;;20.60;95.70;;;;;;5074004;28;20885;-68
2022/06/27 04:51:58;;;;;;;14.70;9.80;;;20.60;95.80;;;;;;5073950;28;20445;-68
2022/06/27 04:54:26;;;;;;;11.60;10.50;;;20.70;95.90;;;;;;5073797;28;20511;-69
2022/06/27 04:56:54;;;;;;;12.90;9.60;;;20.70;96.00;;;;;;5074044;28;20457;-70
2022/06/27 04:59:21;;;;;;;12.60;10.47;;;20.70;96.00;;;;;;5073648;28;20487;-69
2022/06/27 05:01:49;;;;;;;10.93;8.30;;;20.70;95.90;;;;;;5073872;28;20841;-69
2022/06/27 05:04:17;;;;;;;12.03;10.30;;;20.70;95.90;;;;;;5073770;28;20488;-70
2022/06/27 05:06:45;;;;;;;9.77;8.90;;;20.80;95.80;;;;;;5074400;28;20452;-70
2022/06/27 05:09:12;;;;;;;10.47;9.43;;;20.90;95.70;;;;;;5074628;28;20441;-69
2022/06/27 05:11:38;;;;;;;7.93;7.23;;;20.90;95.60;;;;;;5074700;28;20455;-69
2022/06/27 05:14:05;;;;;;;10.90;9.90;;;21.10;95.30;;;;;;5074937;28;20464;-69
2022/06/27 05:16:32;;;;;;;9.30;8.40;;;21.10;95.00;;;;;;5074448;28;20444;-69
2022/06/27 05:18:59;;;;;;;7.37;6.77;;;21.20;95.00;;;;;;5074631;28;20444;-69
2022/06/27 05:21:27;;;;;;;10.90;7.93;;;21.30;94.50;;;;;;5074241;28;20452;-69
2022/06/27 05:23:55;;;;;;;9.77;8.87;;;21.40;94.20;;;;;;5073751;28;20563;-69
2022/06/27 05:26:21;;;;;;;9.50;7.70;;;21.40;93.90;;;;;;5074489;28;20452;-69
2022/06/27 05:28:48;;;;;;;9.10;8.20;;;21.50;93.70;;;;;;5074964;28;20448;-69
2022/06/27 05:31:15;;;;;;;10.90;8.30;;;21.60;93.60;;;;;;5074867;28;20436;-69
2022/06/27 05:33:42;;;;;;;12.47;8.63;;;21.70;93.40;;;;;;5074900;28;20471;-69
2022/06/27 05:36:10;;;;;;;11.40;9.53;;;21.70;93.50;;;;;;5075066;28;20444;-69
2022/06/27 05:38:39;;;;;;;8.77;6.80;;;21.80;93.50;;;;;;5075144;28;20506;-69
2022/06/27 05:41:07;;;;;;;10.20;9.10;;;21.80;93.40;;;;;;5075314;28;20448;-69
2022/06/27 05:43:34;;;;;;;14.53;8.83;;;21.80;93.30;;;;;;5073295;28;20556;-69
2022/06/27 05:46:01;;;;;;;13.37;9.20;;;21.80;93.30;;;;;;5073324;28;20492;-69
2022/06/27 05:48:28;;;;;;;12.87;8.40;;;21.70;93.00;;;;;;5073364;28;20466;-69
2022/06/27 05:50:55;;;;;;;9.90;8.90;;;21.70;92.90;;;;;;5073673;28;20930;-69
2022/06/27 05:53:23;;;;;;;10.73;7.40;;;21.60;92.90;;;;;;5073945;28;20471;-69
2022/06/27 05:55:50;;;;;;;8.37;7.13;;;21.50;92.90;;;;;;5074017;28;20444;-69
2022/06/27 05:58:19;;;;;;;8.50;7.00;;;21.50;92.80;;;;;;5073693;28;20872;-69
2022/06/27 06:00:46;;;;;;;11.40;6.73;;;21.50;92.70;;;;;;5073840;28;20445;-69
2022/06/27 06:03:13;;;;;;;9.80;6.37;;;21.50;92.80;;;;;;5073773;28;20451;-70
2022/06/27 06:05:41;;;;;;;10.83;7.67;;;21.50;92.70;;;;;;5073363;28;20851;-69
2022/06/27 06:08:08;;;;;;;8.33;6.40;;;21.50;92.80;;;;;;5073303;28;20441;-69
2022/06/27 06:10:35;;;;;;;10.67;7.30;;;21.50;93.20;;;;;;5073099;28;20453;-70
2022/06/27 06:13:03;;;;;;;12.50;8.77;;;21.50;92.90;;;;;;5072703;28;20792;-69
2022/06/27 06:15:31;;;;;;;11.10;9.60;;;21.60;93.00;;;;;;5072696;28;20445;-70
2022/06/27 06:18:01;;;;;;;11.03;8.73;;;21.60;93.20;;;;;;5076154;28;20452;-71
2022/06/27 06:20:28;;;;;;;12.03;8.27;;;21.60;93.70;;;;;;5077234;28;20878;-71
2022/06/27 06:22:55;;;;;;;10.17;9.10;;;21.60;93.40;;;;;;5077015;28;20432;-70
2022/06/27 06:25:23;;;;;;;12.50;8.40;;;21.70;93.30;;;;;;5076239;28;20487;-71
2022/06/27 06:27:50;;;;;;;11.40;8.13;;;21.70;93.20;;;;;;5076786;28;20528;-71
2022/06/27 06:30:19;;;;;;;12.90;8.70;;;21.70;93.20;;;;;;5076613;28;20440;-70
2022/06/27 06:32:47;;;;;;;12.83;8.13;;;21.70;93.10;;;;;;5076762;28;20527;-70
2022/06/27 06:35:15;;;;;;;9.97;7.80;;;21.70;93.20;;;;;;5076768;28;20453;-70
2022/06/27 06:37:41;;;;;;;13.73;8.27;;;21.70;92.70;;;;;;5076371;28;20906;-70
2022/06/27 06:40:10;;;;;;;9.80;8.07;;;21.70;93.00;;;;;;5076529;28;20506;-71
2022/06/27 06:42:36;;;;;;;13.53;7.93;;;21.70;93.00;;;;;;5076483;28;20812;-71
2022/06/27 06:45:04;;;;;;;7.77;6.83;;;21.70;92.80;;;;;;5076344;28;20487;-71
2022/06/27 06:47:31;;;;;;;8.90;7.77;;;21.70;92.50;;;;;;5076353;28;20460;-71
2022/06/27 06:50:00;;;;;;;10.70;8.20;;;21.70;92.30;;;;;;5076016;28;20809;-71
2022/06/27 06:52:27;;;;;;;11.50;7.47;;;21.80;92.40;;;;;;5075998;28;20860;-70
2022/06/27 06:54:54;;;;;;;10.90;7.70;;;21.90;92.20;;;;;;5075964;28;20511;-71
2022/06/27 06:57:21;;;;;;;8.40;7.10;;;22.00;91.80;;;;;;5076326;28;20456;-71
2022/06/27 06:59:48;;;;;;;9.07;8.17;;;22.20;91.70;;;;;;5076619;28;20445;-71
2022/06/27 07:02:15;;;;;;;9.73;8.17;;;22.30;91.60;;;;;;5075886;28;20456;-71
2022/06/27 07:04:41;;;;;;;9.57;8.60;;;22.40;91.30;;;;;;5075910;28;20563;-71
2022/06/27 07:07:10;;;;;;;15.40;8.70;;;22.40;91.00;;;;;;5076154;28;20445;-71
2022/06/27 07:09:37;;;;;;;12.30;8.83;;;22.50;90.90;;;;;;5075501;28;20825;-70
2022/06/27 07:12:05;;;;;;;10.60;7.83;;;22.50;90.80;;;;;;5076325;28;20440;-71
2022/06/27 07:14:31;;;;;;;11.00;8.37;;;22.70;90.30;;;;;;5075696;28;20837;-71
2022/06/27 07:16:58;;;;;;;12.87;8.17;;;22.70;90.30;;;;;;5075986;28;20455;-71
2022/06/27 07:19:26;;;;;;;8.33;7.43;;;22.70;90.00;;;;;;5075996;28;20445;-71
2022/06/27 07:21:53;;;;;;;8.57;7.77;;;22.70;89.00;;;;;;5076585;28;20453;-70
2022/06/27 07:24:21;;;;;;;9.47;8.40;;;22.70;88.30;;;;;;5075591;28;20469;-71
2022/06/27 07:26:49;;;;;;;7.53;6.53;;;22.80;89.80;;;;;;5075739;28;20447;-71
2022/06/27 07:29:16;;;;;;;7.90;7.20;;;22.80;89.20;;;;;;5074908;28;20817;-70
2022/06/27 07:31:43;;;;;;;9.83;7.90;;;22.80;88.20;;;;;;5075575;28;20477;-72
2022/06/27 07:34:11;;;;;;;8.03;7.23;;;22.90;88.10;;;;;;5075436;28;20472;-71
2022/06/27 07:36:38;;;;;;;8.10;6.90;;;23.00;88.30;;;;;;5075470;28;20448;-71
2022/06/27 07:39:06;;;;;;;8.17;7.37;;;23.00;87.90;;;;;;5075461;28;20470;-70
2022/06/27 07:41:34;;;;;;;9.03;8.10;;;23.10;87.30;;;;;;5075477;28;20801;-71
2022/06/27 07:44:03;;;;;;;12.17;7.07;;;23.20;87.20;;;;;;5075240;28;20475;-70
2022/06/27 07:46:31;;;;;;;9.03;8.03;;;23.30;87.10;;;;;;5075243;28;20491;-71
2022/06/27 07:48:58;;;;;;;10.57;8.67;;;23.40;86.30;;;;;;5075148;28;20950;-71
2022/06/27 07:51:25;;;;;;;9.13;8.17;;;23.40;86.00;;;;;;5075336;28;20444;-71
2022/06/27 07:53:52;;;;;;;8.13;7.33;;;23.40;84.70;;;;;;5074873;28;20493;-70
2022/06/27 07:56:22;;;;;;;10.97;9.07;;;23.50;84.80;;;;;;5075044;28;20453;-71
2022/06/27 07:58:50;;;;;;;13.60;7.40;;;23.50;84.70;;;;;;5075119;28;20448;-71
2022/06/27 08:01:19;;;;;;;9.70;7.63;;;23.40;84.80;;;;;;5075002;28;20452;-71
2022/06/27 08:03:48;;;;;;;9.47;8.00;;;23.30;84.30;;;;;;5074550;28;20831;-70
2022/06/27 08:06:16;;;;;;;8.90;7.27;;;23.20;84.80;;;;;;5074839;28;20965;-70
2022/06/27 08:08:45;;;;;;;11.27;8.10;;;23.00;85.40;;;;;;5075246;28;20520;-70
2022/06/27 08:11:15;;;;;;;10.47;8.90;;;22.90;86.80;;;;;;5074732;28;20452;-70
2022/06/27 08:13:43;;;;;;;13.83;9.50;;;22.70;86.00;;;;;;5074997;28;20909;-71
2022/06/27 08:16:14;;;;;;;9.40;8.50;;;22.70;87.50;;;;;;5076275;28;20433;-71
2022/06/27 08:18:42;;;;;;;13.57;9.30;;;22.70;87.10;;;;;;5075965;28;20441;-71
2022/06/27 08:21:10;;;;;;;15.43;8.20;;;22.70;88.10;;;;;;5074342;28;20445;-69
2022/06/27 08:23:37;;;;;;;11.70;7.53;;;22.80;88.60;;;;;;5074360;28;20484;-70
2022/06/27 08:26:06;;;;;;;11.57;7.30;;;22.90;87.80;;;;;;5074319;28;20526;-71
2022/06/27 08:28:33;;;;;;;15.77;8.73;;;23.00;88.00;;;;;;5074021;28;20952;-71
2022/06/27 08:31:01;;;;;;;11.73;8.30;;;23.00;86.60;;;;;;5073916;28;20448;-70
2022/06/27 08:33:30;;;;;;;9.20;7.83;;;23.00;87.00;;;;;;5074312;28;20530;-70
2022/06/27 08:35:57;;;;;;;13.87;9.27;;;23.00;87.20;;;;;;5074272;28;20543;-71
2022/06/27 08:38:25;;;;;;;12.40;7.70;;;23.00;87.20;;;;;;5074067;28;20831;-71
2022/06/27 08:40:54;;;;;;;9.60;8.70;;;23.00;86.30;;;;;;5073225;28;20452;-70
2022/06/27 08:43:21;;;;;;;12.13;9.30;;;23.10;87.10;;;;;;5073994;28;20448;-69
2022/06/27 08:45:50;;;;;;;11.60;9.17;;;23.20;86.00;;;;;;5074043;28;20469;-71
2022/06/27 08:48:17;;;;;;;10.10;9.10;;;23.20;86.70;;;;;;5073758;28;20449;-71
2022/06/27 08:50:48;;;;;;;9.97;8.93;;;23.30;86.30;;;;;;5074052;28;20440;-71
2022/06/27 08:53:17;;;;;;;10.20;9.10;;;23.30;85.20;;;;;;5073945;28;20436;-70
2022/06/27 08:55:46;;;;;;;10.33;8.73;;;23.30;85.40;;;;;;5073531;28;20548;-71
2022/06/27 08:58:13;;;;;;;11.30;8.30;;;23.30;85.10;;;;;;5074676;28;20437;-71
2022/06/27 09:00:45;;;;;;;9.07;7.83;;;23.30;84.80;;;;;;5073762;28;20445;-70
2022/06/27 09:03:12;;;;;;;12.40;9.10;;;23.30;85.80;;;;;;5073817;28;20468;-70
2022/06/27 09:05:40;;;;;;;11.60;8.33;;;23.40;86.30;;;;;;5073735;28;20464;-71
2022/06/27 09:08:09;;;;;;;13.73;8.70;;;23.50;84.60;;;;;;5073422;28;20821;-71
2022/06/27 09:10:39;;;;;;;11.07;9.03;;;23.60;83.80;;;;;;5074426;28;20500;-71
2022/06/27 09:13:09;;;;;;;14.43;8.47;;;23.80;83.30;;;;;;5073775;28;20432;-69
2022/06/27 09:15:52;;;;;;;12.60;8.40;;;23.80;81.30;;;;;;5073743;28;20456;-70
2022/06/27 09:18:21;;;;;;;14.13;9.23;;;24.00;80.50;;;;;;5073790;28;20432;-71
2022/06/27 09:20:52;;;;;;;14.00;7.47;;;24.20;80.50;;;;;;5073782;28;20514;-71
2022/06/27 09:23:40;;;;;;;15.47;9.03;;;24.30;78.90;;;;;;5073383;28;20508;-70
2022/06/27 09:26:10;;;;;;;10.60;8.93;;;24.30;77.20;;;;;;5073297;28;20571;-70
2022/06/27 09:28:56;;;;;;;10.27;9.20;;;24.30;77.90;;;;;;5073598;28;21024;-70
2022/06/27 09:31:35;;;;;;;11.03;9.47;;;24.30;78.30;;;;;;5073185;28;20468;-69
2022/06/27 09:34:14;;;;;;;11.10;9.50;;;24.20;78.60;;;;;;5073245;28;20990;-70
2022/06/27 09:36:42;;;;;;;11.07;9.50;;;24.20;78.40;;;;;;5073620;28;20868;-70
2022/06/27 09:39:19;;;;;;;11.00;9.17;;;24.10;79.00;;;;;;5073319;28;20432;-71
2022/06/27 09:42:01;;;;;;;8.73;7.83;;;24.10;79.30;;;;;;5073941;28;20429;-70
2022/06/27 09:44:30;;;;;;;11.47;10.10;;;24.20;79.50;;;;;;5073657;28;20486;-70
2022/06/27 09:47:04;;;;;;;10.17;8.33;;;24.10;78.40;;;;;;5073397;28;20477;-71
2022/06/27 09:49:33;;;;;;;11.03;9.20;;;24.10;79.30;;;;;;5073428;28;20495;-71
2022/06/27 09:52:04;;;;;;;13.57;9.70;;;24.00;80.70;;;;;;5076519;28;20445;-71
2022/06/27 09:54:34;;;;;;;16.80;10.37;;;23.90;81.90;;;;;;5077228;28;20476;-71
2022/06/27 09:57:01;;;;;;;15.77;9.20;;;23.80;81.90;;;;;;5077427;28;20451;-71
2022/06/27 09:59:29;;;;;;;10.83;9.80;;;23.70;80.70;;;;;;5077001;28;20792;-71
2022/06/27 10:01:57;;;;;;;10.70;9.40;;;23.70;81.10;;;;;;5077361;28;20475;-72
2022/06/27 10:04:25;;;;;;;11.10;10.00;;;23.60;82.10;;;;;;5077050;28;20471;-71
2022/06/27 10:06:53;;;;;;;11.97;8.63;;;23.50;82.60;;;;;;5077079;28;20567;-71
2022/06/27 10:09:24;;;;;;;14.33;9.60;;;23.50;81.80;;;;;;5077232;28;20441;-72
2022/06/27 10:12:25;;;;;;;11.07;9.90;;;23.50;82.40;;;;;;5077234;28;20493;-71
2022/06/27 10:15:23;;;;;;;14.97;10.37;;;23.40;83.70;;;;;;5077029;28;20487;-68
2022/06/27 10:17:52;;;;;;;11.33;10.27;;;23.30;82.80;;;;;;5077043;28;20494;-68
2022/06/27 10:20:20;;;;;;;14.13;10.57;;;23.30;82.90;;;;;;5077080;28;20456;-70
2022/06/27 10:22:49;;;;;;;14.67;9.90;;;23.30;82.50;;;;;;5077087;28;20456;-71
2022/06/27 10:25:34;;;;;;;12.70;9.70;;;23.30;82.90;;;;;;5076904;28;20471;-72
2022/06/27 10:30:55;;;;;;;10.73;9.70;;;23.50;83.00;;;;;;5112228;27;20566;-72
2022/06/27 10:33:39;;;;;;;12.17;10.97;;;23.60;81.00;;;;;;5111426;28;20499;-72
2022/06/27 10:36:13;;;;;;;11.10;10.00;;;23.70;81.00;;;;;;5111372;28;20795;-72
2022/06/27 10:38:59;;;;;;;10.40;9.30;;;23.80;80.60;;;;;;5111763;28;20476;-72
2022/06/27 10:41:42;;;;;;;11.57;10.33;;;23.90;79.60;;;;;;5111796;28;20438;-72
2022/06/27 10:44:33;;;;;;;12.03;10.63;;;24.10;78.50;;;;;;5111705;28;20463;-71
2022/06/27 10:47:02;;;;;;;14.57;9.50;;;24.10;78.20;;;;;;5112156;28;20423;-72
2022/06/27 10:49:31;;;;;;;12.47;10.60;;;24.10;77.30;;;;;;5111658;28;20479;-73
2022/06/27 10:52:34;;;;;;;12.47;10.60;;;24.30;77.80;;;;;;5112392;28;20478;-72
2022/06/27 10:55:02;;;;;;;11.70;10.50;;;24.30;76.50;;;;;;5097960;28;20479;-72
2022/06/27 10:57:42;;;;;;;12.83;10.60;;;24.40;77.90;;;;;;5092063;28;20454;-72
2022/06/27 11:00:10;;;;;;;10.77;9.27;;;24.50;76.50;;;;;;5091611;28;20428;-72
2022/06/27 11:02:40;;;;;;;12.13;10.80;;;24.50;75.00;;;;;;5090562;28;20440;-72
2022/06/27 11:05:06;;;;;;;11.67;10.33;;;24.70;75.30;;;;;;5090421;28;20498;-72
2022/06/27 11:07:33;;;;;;;14.47;10.40;;;24.80;74.30;;;;;;5091238;28;20444;-72
2022/06/27 11:10:01;;;;;;;11.03;8.10;;;25.00;73.10;;;;;;5090321;28;20479;-72
2022/06/27 11:12:36;;;;;;;12.07;9.60;;;25.20;73.30;;;;;;5090316;28;20815;-72
2022/06/27 11:15:04;;;;;;;14.27;10.43;;;25.50;73.90;;;;;;5090205;28;20471;-72
2022/06/27 11:17:37;;;;;;;14.37;11.70;;;25.80;72.10;;;;;;5090254;28;20444;-72
2022/06/27 11:20:18;;;;;;;13.27;10.87;;;26.00;68.90;;;;;;5091119;28;20424;-72
2022/06/27 11:22:47;;;;;;;12.87;10.83;;;26.20;67.10;;;;;;5090247;28;20428;-72
2022/06/27 11:25:14;;;;;;;11.57;9.90;;;26.30;66.20;;;;;;5090010;28;20546;-72
2022/06/27 11:27:45;;;;;;;7.73;6.60;;;26.40;64.60;;;;;;5090115;28;20432;-72
2022/06/27 11:33:16;;;;;;;10.23;6.60;;;26.80;62.70;;;;;;5090059;28;20871;-71
2022/06/27 11:35:44;;;;;;;7.37;6.60;;;27.20;60.60;;;;;;5089951;28;20451;-72
2022/06/27 11:38:11;;;;;;;7.40;6.67;;;27.60;58.90;;;;;;5089588;28;20424;-73
2022/06/27 11:40:38;;;;;;;5.13;4.60;;;27.90;56.50;;;;;;5084984;28;20809;-73
2022/06/27 11:43:05;;;;;;;5.10;4.70;;;28.00;55.70;;;;;;5076223;28;20518;-72
2022/06/27 11:45:40;;;;;;;10.07;8.30;;;28.10;55.30;;;;;;5075917;28;20936;-72
2022/06/27 11:48:14;;;;;;;8.27;7.43;;;28.10;54.00;;;;;;5076337;28;20432;-72
2022/06/27 11:50:41;;;;;;;9.10;6.03;;;28.20;54.20;;;;;;5075920;28;20471;-73
2022/06/27 11:53:10;;;;;;;7.90;6.60;;;28.40;54.30;;;;;;5075736;28;20818;-71
2022/06/27 11:55:37;;;;;;;6.27;5.57;;;28.60;53.30;;;;;;5076110;28;20486;-72
2022/06/27 11:58:04;;;;;;;7.70;5.53;;;28.60;52.90;;;;;;5076075;28;20441;-72
2022/06/27 12:00:33;;;;;;;7.10;5.47;;;28.60;52.00;;;;;;5075675;28;20810;-72
2022/06/27 12:03:06;;;;;;;7.30;6.00;;;28.50;52.80;;;;;;5075987;28;20786;-72
2022/06/27 12:05:33;;;;;;;7.70;7.00;;;28.30;53.00;;;;;;5076338;28;20455;-72
2022/06/27 12:08:03;;;;;;;7.77;6.90;;;28.00;53.50;;;;;;5075860;28;20452;-72
2022/06/27 12:13:31;;;;;;;9.50;6.93;;;27.20;55.30;;;;;;5075019;28;21062;-72
2022/06/27 12:16:00;;;;;;;8.00;7.20;;;26.80;56.50;;;;;;5075708;28;20436;-72
2022/06/27 12:18:33;;;;;;;7.63;6.97;;;26.60;55.90;;;;;;5075653;28;20536;-72
2022/06/27 12:21:00;;;;;;;8.50;7.53;;;26.40;56.00;;;;;;5076014;28;20435;-72
2022/06/27 12:23:27;;;;;;;7.00;5.50;;;26.50;56.10;;;;;;5075893;28;20477;-72
2022/06/27 12:25:55;;;;;;;8.33;5.53;;;26.70;55.20;;;;;;5075439;28;20474;-72
2022/06/27 12:28:22;;;;;;;7.03;6.27;;;27.10;55.50;;;;;;5075509;28;20783;-72
2022/06/27 12:30:49;;;;;;;10.23;6.17;;;27.60;54.30;;;;;;5075062;28;20484;-72
2022/06/27 12:33:15;;;;;;;9.27;6.33;;;27.80;53.20;;;;;;5075249;28;20822;-71
2022/06/27 12:35:42;;;;;;;7.33;5.47;;;28.10;52.60;;;;;;5075305;28;20445;-72
2022/06/27 12:38:09;;;;;;;8.33;4.93;;;28.20;51.00;;;;;;5074910;28;20934;-72
2022/06/27 12:40:37;;;;;;;5.40;4.40;;;28.50;51.70;;;;;;5075132;28;20528;-72
2022/06/27 12:43:06;;;;;;;7.47;6.77;;;28.80;51.80;;;;;;5075212;28;20447;-72
2022/06/27 12:45:33;;;;;;;5.53;4.50;;;28.80;48.30;;;;;;5075109;28;20502;-72
2022/06/27 12:48:02;;;;;;;8.70;6.60;;;28.80;48.10;;;;;;5075082;28;20452;-72
2022/06/27 12:50:28;;;;;;;7.10;5.73;;;28.90;48.90;;;;;;5074910;28;20477;-72
2022/06/27 12:52:55;;;;;;;5.97;5.33;;;29.30;48.50;;;;;;5073936;28;20449;-72
2022/06/27 12:55:22;;;;;;;6.53;5.40;;;29.70;48.40;;;;;;5074824;28;20464;-72